Alabaster, Alabama
Current Conditions -  °F | °C
As of 10:53 AM on Friday 21 Nov 2014 (Local Time) from KEET Reporting Station
Clear Clear  
Wind Chill: 60°   Ceiling: Unl
Heat Index: 60°   Visibility: 10mi
Dew Point: 43°   Wind: 0mph
Humidity: 53%   Direction: NA
Pressure: 30.39"   Gusts: NA
Location:  33.25°N, 86.82°W
Report Text: KEET 211653Z AUTO 00000KT 10SM CLR 16/06 A3039 RMK AO2 SLP288 T01560061
Loading
Personal Weather Stations






























Interactive Weather Map New forecast layout! Learn more

10-Day Weather Forecast

Advertisements
Track Severe Weather on mobile